Time;durP1;ratioP1;P1;durP2;ratioP2;P2;SDS_P1;SDS_P2;PMS_P1;PMS_P2;Temp;Humidity;BMP_temperature;BMP_pressure;BME280_temperature;BME280_humidity;BME280_pressure;Samples;Min_cycle;Max_cycle;Signal;HPM_P1;HPM_P2
2022/03/22 00:00:29;;;;;;;37.08;14.05;;;;;;;;;;4970339;28;20337;-61
2022/03/22 00:02:55;;;;;;;31.48;13.05;;;;;;;;;;4966375;28;20478;-61
2022/03/22 00:05:20;;;;;;;35.85;13.57;;;;;;;;;;4970280;28;20344;-61
2022/03/22 00:07:46;;;;;;;32.00;13.43;;;;;;;;;;4970910;28;20431;-61
2022/03/22 00:10:11;;;;;;;37.70;13.23;;;;;;;;;;4969957;28;20356;-61
2022/03/22 00:12:37;;;;;;;31.38;12.70;;;;;;;;;;4970058;28;20029;-61
2022/03/22 00:15:03;;;;;;;31.08;11.90;;;;;;;;;;4970248;28;20510;-61
2022/03/22 00:17:29;;;;;;;28.63;11.82;;;;;;;;;;4970392;28;20329;-61
2022/03/22 00:19:54;;;;;;;25.77;11.10;;;;;;;;;;4970256;28;20056;-61
2022/03/22 00:22:20;;;;;;;28.10;12.95;;;;;;;;;;4961167;28;20318;-62
2022/03/22 00:24:45;;;;;;;28.55;13.40;;;;;;;;;;4969549;28;20369;-61
2022/03/22 00:27:11;;;;;;;27.58;12.13;;;;;;;;;;4969927;28;20490;-61
2022/03/22 00:29:36;;;;;;;31.67;11.98;;;;;;;;;;4970357;28;20433;-64
2022/03/22 00:32:02;;;;;;;28.95;11.55;;;;;;;;;;4970042;28;20349;-61
2022/03/22 00:34:28;;;;;;;32.38;11.93;;;;;;;;;;4969418;28;20487;-61
2022/03/22 00:36:58;;;;;;;28.55;11.52;;;;;;;;;;4969702;28;20527;-61
2022/03/22 00:39:24;;;;;;;28.05;11.88;;;;;;;;;;4969397;28;20349;-61
2022/03/22 00:41:49;;;;;;;25.33;11.15;;;;;;;;;;4969687;28;20026;-61
2022/03/22 00:44:15;;;;;;;33.92;12.80;;;;;;;;;;4969476;28;20340;-61
2022/03/22 00:46:40;;;;;;;27.52;11.00;;;;;;;;;;4969209;28;20507;-61
2022/03/22 00:49:05;;;;;;;30.45;11.88;;;;;;;;;;4969910;28;20472;-61
2022/03/22 00:51:31;;;;;;;31.42;12.82;;;;;;;;;;4969385;28;20413;-61
2022/03/22 00:53:59;;;;;;;28.20;11.95;;;;;;;;;;4969326;28;20361;-61
2022/03/22 00:56:25;;;;;;;30.00;11.68;;;;;;;;;;4969456;28;20340;-60
2022/03/22 01:00:01;;;;;;;27.40;10.95;;;;;;;;;;4969693;28;20324;-62
2022/03/22 01:01:35;;;;;;;28.70;11.32;;;;;;;;;;4981172;28;20461;-61
2022/03/22 01:04:04;;;;;;;31.27;10.85;;;;;;;;;;4969463;28;20094;-61
2022/03/22 01:06:30;;;;;;;25.20;12.20;;;;;;;;;;4968934;28;20390;-61
2022/03/22 01:08:56;;;;;;;31.25;11.18;;;;;;;;;;4969044;28;20379;-61
2022/03/22 01:11:21;;;;;;;33.75;11.38;;;;;;;;;;4970202;28;20048;-61
2022/03/22 01:13:46;;;;;;;28.05;11.13;;;;;;;;;;4969004;28;20329;-61
2022/03/22 01:16:12;;;;;;;27.17;10.85;;;;;;;;;;4969077;28;20025;-61
2022/03/22 01:18:37;;;;;;;29.95;12.68;;;;;;;;;;4969722;28;20447;-61
2022/03/22 01:21:02;;;;;;;25.27;11.45;;;;;;;;;;4969679;28;20341;-61
2022/03/22 01:23:28;;;;;;;26.17;10.98;;;;;;;;;;4969385;28;20455;-61
2022/03/22 01:25:54;;;;;;;24.67;11.98;;;;;;;;;;4969275;28;20033;-61
2022/03/22 01:28:20;;;;;;;26.83;11.75;;;;;;;;;;4969936;28;20444;-61
2022/03/22 01:30:46;;;;;;;26.73;11.82;;;;;;;;;;4968971;28;20404;-61
2022/03/22 01:33:14;;;;;;;23.92;11.13;;;;;;;;;;4968973;28;20353;-61
2022/03/22 01:35:40;;;;;;;31.38;11.52;;;;;;;;;;4969386;28;20416;-61
2022/03/22 01:38:05;;;;;;;26.52;10.98;;;;;;;;;;4968888;28;20435;-61
2022/03/22 01:40:31;;;;;;;27.33;11.38;;;;;;;;;;4969610;28;20332;-61
2022/03/22 01:42:57;;;;;;;25.80;10.57;;;;;;;;;;4968858;28;20417;-61
2022/03/22 01:45:23;;;;;;;26.30;10.25;;;;;;;;;;4968356;28;20373;-61
2022/03/22 01:47:49;;;;;;;29.90;11.10;;;;;;;;;;4968927;28;20376;-61
2022/03/22 01:50:17;;;;;;;21.65;9.35;;;;;;;;;;4969095;28;20375;-61
2022/03/22 01:52:43;;;;;;;28.95;11.13;;;;;;;;;;4968711;28;20357;-61
2022/03/22 01:55:11;;;;;;;22.85;10.27;;;;;;;;;;4968883;28;20348;-61
2022/03/22 01:57:36;;;;;;;25.50;11.55;;;;;;;;;;4968728;28;20372;-61
2022/03/22 02:00:07;;;;;;;23.27;9.98;;;;;;;;;;4969136;28;20095;-61
2022/03/22 02:08:06;;;;;;;27.08;10.98;;;;;;;;;;4967024;28;20106;-61
2022/03/22 02:10:31;;;;;;;25.77;10.82;;;;;;;;;;4968884;28;20436;-61
2022/03/22 02:12:57;;;;;;;22.05;9.82;;;;;;;;;;4971563;28;20496;-61
2022/03/22 02:15:22;;;;;;;23.90;10.32;;;;;;;;;;4973388;28;20431;-61
2022/03/22 02:17:47;;;;;;;25.40;10.35;;;;;;;;;;4973001;28;20167;-61
2022/03/22 02:20:13;;;;;;;26.92;11.50;;;;;;;;;;4972172;28;20443;-61
2022/03/22 02:22:51;;;;;;;26.27;10.38;;;;;;;;;;4972190;28;20395;-62
2022/03/22 02:25:18;;;;;;;26.35;11.38;;;;;;;;;;4972253;28;20359;-61
2022/03/22 02:27:45;;;;;;;26.58;10.18;;;;;;;;;;4971890;28;20340;-63
2022/03/22 02:30:14;;;;;;;24.75;10.70;;;;;;;;;;4972600;28;20353;-61
2022/03/22 02:32:40;;;;;;;21.75;10.57;;;;;;;;;;4972448;28;20335;-61
2022/03/22 02:35:06;;;;;;;25.38;10.25;;;;;;;;;;4969710;28;20314;-61
2022/03/22 02:37:32;;;;;;;24.55;11.40;;;;;;;;;;4971944;28;20400;-61
2022/03/22 02:39:58;;;;;;;24.23;10.93;;;;;;;;;;4972293;28;20139;-61
2022/03/22 02:42:23;;;;;;;25.40;11.10;;;;;;;;;;4972697;28;20334;-62
2022/03/22 02:44:48;;;;;;;25.23;11.05;;;;;;;;;;4971340;28;20348;-61
2022/03/22 02:47:15;;;;;;;26.63;10.02;;;;;;;;;;4973334;28;20439;-62
2022/03/22 02:49:40;;;;;;;28.50;10.48;;;;;;;;;;4972140;28;20531;-61
2022/03/22 02:52:06;;;;;;;25.65;11.32;;;;;;;;;;4971835;28;20437;-61
2022/03/22 02:54:31;;;;;;;25.63;10.95;;;;;;;;;;4973064;28;20321;-61
2022/03/22 02:56:56;;;;;;;29.13;10.63;;;;;;;;;;4972006;28;20466;-61
2022/03/22 02:59:22;;;;;;;22.83;9.85;;;;;;;;;;4971318;28;20362;-61
2022/03/22 03:01:47;;;;;;;25.27;10.35;;;;;;;;;;4971531;28;20484;-61
2022/03/22 03:04:12;;;;;;;22.45;10.23;;;;;;;;;;4971449;28;20356;-61
2022/03/22 03:06:38;;;;;;;25.58;9.98;;;;;;;;;;4971362;28;20060;-61
2022/03/22 03:09:03;;;;;;;21.80;9.77;;;;;;;;;;4971646;28;20445;-61
2022/03/22 03:11:29;;;;;;;24.60;10.63;;;;;;;;;;4970806;28;20516;-61
2022/03/22 03:16:39;;;;;;;24.85;11.00;;;;;;;;;;4971126;28;20440;-61
2022/03/22 03:19:05;;;;;;;20.85;10.07;;;;;;;;;;4971032;28;20322;-61
2022/03/22 03:21:32;;;;;;;27.38;11.10;;;;;;;;;;4971784;28;20348;-61
2022/03/22 03:23:57;;;;;;;27.60;11.48;;;;;;;;;;4970498;28;20183;-61
2022/03/22 03:26:22;;;;;;;25.58;11.68;;;;;;;;;;4972032;28;20440;-62
2022/03/22 03:28:47;;;;;;;28.00;10.70;;;;;;;;;;4971431;28;20052;-61
2022/03/22 03:31:13;;;;;;;24.40;10.45;;;;;;;;;;4971254;28;20508;-61
2022/03/22 03:33:38;;;;;;;26.73;10.35;;;;;;;;;;4970907;28;20365;-61
2022/03/22 03:36:04;;;;;;;25.20;10.32;;;;;;;;;;4971493;28;20421;-61
2022/03/22 03:38:29;;;;;;;23.67;10.77;;;;;;;;;;4970996;28;20584;-62
2022/03/22 03:43:38;;;;;;;23.23;10.75;;;;;;;;;;4970965;28;20722;-61
2022/03/22 03:48:48;;;;;;;23.30;10.27;;;;;;;;;;4970810;28;20451;-61
2022/03/22 03:51:13;;;;;;;23.80;10.35;;;;;;;;;;4970373;28;20427;-61
2022/03/22 03:53:39;;;;;;;24.40;10.70;;;;;;;;;;4971681;28;20494;-61
2022/03/22 03:56:04;;;;;;;24.65;11.38;;;;;;;;;;4970067;28;20239;-62
2022/03/22 03:58:30;;;;;;;23.55;10.40;;;;;;;;;;4971697;28;20306;-61
2022/03/22 04:00:56;;;;;;;23.58;10.75;;;;;;;;;;4970618;28;20495;-61
2022/03/22 04:03:21;;;;;;;24.42;10.95;;;;;;;;;;4969849;28;20429;-61
2022/03/22 04:05:46;;;;;;;23.73;10.63;;;;;;;;;;4970372;28;20334;-66
2022/03/22 04:08:12;;;;;;;28.35;12.10;;;;;;;;;;4970105;28;20360;-61
2022/03/22 04:10:37;;;;;;;19.73;10.05;;;;;;;;;;4970074;28;20457;-61
2022/03/22 04:13:02;;;;;;;27.55;11.98;;;;;;;;;;4970466;28;20407;-61
2022/03/22 04:15:29;;;;;;;25.15;11.15;;;;;;;;;;4970152;28;20472;-61
2022/03/22 04:17:56;;;;;;;27.33;11.25;;;;;;;;;;4970014;28;20306;-61
2022/03/22 04:20:22;;;;;;;21.15;9.90;;;;;;;;;;4969801;28;20034;-62
2022/03/22 04:22:47;;;;;;;23.98;11.45;;;;;;;;;;4970095;28;20053;-64
2022/03/22 04:25:13;;;;;;;24.45;10.93;;;;;;;;;;4969882;28;20360;-61
2022/03/22 04:33:06;;;;;;;21.35;9.80;;;;;;;;;;4970290;28;20432;-61
2022/03/22 04:35:32;;;;;;;24.27;11.02;;;;;;;;;;4969297;28;20399;-61
2022/03/22 04:37:57;;;;;;;25.30;9.88;;;;;;;;;;4969191;28;20345;-61
2022/03/22 04:40:23;;;;;;;20.63;9.90;;;;;;;;;;4969919;28;20033;-61
2022/03/22 04:42:49;;;;;;;25.58;10.45;;;;;;;;;;4969431;28;20455;-65
2022/03/22 04:45:15;;;;;;;24.42;11.20;;;;;;;;;;4970765;28;20435;-61
2022/03/22 04:47:41;;;;;;;22.40;9.95;;;;;;;;;;4969260;28;20432;-61
2022/03/22 04:50:08;;;;;;;26.90;12.00;;;;;;;;;;4969450;28;20337;-61
2022/03/22 04:58:03;;;;;;;29.05;12.20;;;;;;;;;;4970741;28;20049;-61
2022/03/22 05:00:28;;;;;;;23.58;10.68;;;;;;;;;;4970749;28;20025;-61
2022/03/22 05:02:54;;;;;;;21.50;11.27;;;;;;;;;;4969146;28;20052;-61
2022/03/22 05:06:25;;;;;;;22.98;11.10;;;;;;;;;;4969397;28;20345;-61
2022/03/22 05:08:04;;;;;;;21.85;10.90;;;;;;;;;;4969865;28;20348;-61
2022/03/22 05:10:34;;;;;;;27.35;10.43;;;;;;;;;;4969897;28;20318;-61
2022/03/22 05:13:00;;;;;;;22.08;11.23;;;;;;;;;;4969282;28;20376;-61
2022/03/22 05:15:25;;;;;;;23.52;11.10;;;;;;;;;;4969110;28;20404;-61
2022/03/22 05:17:51;;;;;;;23.52;10.75;;;;;;;;;;4970092;28;20029;-62
2022/03/22 05:20:17;;;;;;;24.70;10.68;;;;;;;;;;4969166;28;20526;-61
2022/03/22 05:22:43;;;;;;;20.13;10.95;;;;;;;;;;4968937;28;20429;-61
2022/03/22 05:25:09;;;;;;;20.90;9.93;;;;;;;;;;4968988;28;20350;-61
2022/03/22 05:27:36;;;;;;;22.15;9.80;;;;;;;;;;4968892;28;20480;-61
2022/03/22 05:30:02;;;;;;;21.45;10.38;;;;;;;;;;4969650;28;20026;-61
2022/03/22 05:32:27;;;;;;;26.80;11.27;;;;;;;;;;4968263;28;20531;-61
2022/03/22 05:34:53;;;;;;;23.75;11.93;;;;;;;;;;4969171;28;20305;-62
2022/03/22 05:37:21;;;;;;;23.30;10.13;;;;;;;;;;4968803;28;20049;-61
2022/03/22 05:39:46;;;;;;;24.55;10.52;;;;;;;;;;4968632;28;20528;-61
2022/03/22 05:42:13;;;;;;;21.23;11.02;;;;;;;;;;4968496;28;20930;-61
2022/03/22 05:44:39;;;;;;;23.08;10.15;;;;;;;;;;4968567;28;20049;-61
2022/03/22 05:47:06;;;;;;;21.55;11.40;;;;;;;;;;4970856;28;20120;-61
2022/03/22 05:49:33;;;;;;;22.98;10.90;;;;;;;;;;4972772;28;20025;-61
2022/03/22 05:51:59;;;;;;;21.48;10.20;;;;;;;;;;4972547;28;20451;-62
2022/03/22 05:54:24;;;;;;;22.67;10.77;;;;;;;;;;4973339;28;20432;-63
2022/03/22 05:56:49;;;;;;;21.67;11.13;;;;;;;;;;4972961;28;20428;-61
2022/03/22 05:59:15;;;;;;;26.35;11.55;;;;;;;;;;4972054;28;20413;-61
2022/03/22 06:01:44;;;;;;;24.20;10.77;;;;;;;;;;4972347;28;20476;-61
2022/03/22 06:04:09;;;;;;;26.83;11.98;;;;;;;;;;4972669;28;20431;-62
2022/03/22 06:06:35;;;;;;;24.58;11.65;;;;;;;;;;4971760;28;20475;-63
2022/03/22 06:09:01;;;;;;;22.85;11.02;;;;;;;;;;4972393;28;20448;-61
2022/03/22 06:11:26;;;;;;;29.20;11.23;;;;;;;;;;4972227;28;20510;-61
2022/03/22 06:13:51;;;;;;;22.88;10.88;;;;;;;;;;4972627;28;20484;-63
2022/03/22 06:16:18;;;;;;;22.02;10.23;;;;;;;;;;4972336;28;20520;-61
2022/03/22 06:18:43;;;;;;;25.13;11.48;;;;;;;;;;4972983;28;20524;-61
2022/03/22 06:21:08;;;;;;;20.65;9.88;;;;;;;;;;4973037;28;20449;-61
2022/03/22 06:23:34;;;;;;;23.02;10.32;;;;;;;;;;4972457;28;20423;-61
2022/03/22 06:26:01;;;;;;;23.27;11.02;;;;;;;;;;4973298;28;20116;-61
2022/03/22 06:28:26;;;;;;;24.83;11.20;;;;;;;;;;4973477;28;20518;-61
2022/03/22 06:30:52;;;;;;;28.35;11.98;;;;;;;;;;4972531;28;20480;-62
2022/03/22 06:33:18;;;;;;;23.23;11.48;;;;;;;;;;4972103;28;20373;-61
2022/03/22 06:35:44;;;;;;;26.25;12.48;;;;;;;;;;4972525;28;20057;-62
2022/03/22 06:38:10;;;;;;;25.58;11.73;;;;;;;;;;4971752;28;20527;-62
2022/03/22 06:40:38;;;;;;;23.33;12.30;;;;;;;;;;4972833;28;20451;-62
2022/03/22 06:43:06;;;;;;;25.58;11.73;;;;;;;;;;4971928;28;20429;-62
2022/03/22 06:45:31;;;;;;;22.85;10.82;;;;;;;;;;4971511;28;20522;-62
2022/03/22 06:47:57;;;;;;;26.90;11.50;;;;;;;;;;4971992;28;20436;-63
2022/03/22 06:50:24;;;;;;;25.98;11.27;;;;;;;;;;4971722;28;20348;-62
2022/03/22 06:52:50;;;;;;;23.15;11.88;;;;;;;;;;4971444;28;20056;-61
2022/03/22 06:55:16;;;;;;;21.13;10.55;;;;;;;;;;4970012;28;20440;-62
2022/03/22 06:57:41;;;;;;;23.35;11.32;;;;;;;;;;4971697;28;20079;-62
2022/03/22 07:00:09;;;;;;;23.92;11.95;;;;;;;;;;4971439;28;20521;-62
2022/03/22 07:02:36;;;;;;;23.05;12.00;;;;;;;;;;4972311;28;20493;-62
2022/03/22 07:05:02;;;;;;;23.55;11.95;;;;;;;;;;4971768;28;20408;-62
2022/03/22 07:07:28;;;;;;;21.40;10.23;;;;;;;;;;4971579;28;20393;-62
2022/03/22 07:09:53;;;;;;;24.30;11.65;;;;;;;;;;4971661;28;20400;-64
2022/03/22 07:12:18;;;;;;;23.13;10.70;;;;;;;;;;4971319;28;20096;-62
2022/03/22 07:14:44;;;;;;;20.38;10.35;;;;;;;;;;4970835;28;20034;-62
2022/03/22 07:17:10;;;;;;;22.42;10.98;;;;;;;;;;4971380;28;20429;-62
2022/03/22 07:19:36;;;;;;;21.77;11.00;;;;;;;;;;4971383;28;20436;-62
2022/03/22 07:22:02;;;;;;;23.95;11.13;;;;;;;;;;4971107;28;20452;-62
2022/03/22 07:24:28;;;;;;;22.70;10.55;;;;;;;;;;4971538;28;20022;-62
2022/03/22 07:26:54;;;;;;;24.65;10.25;;;;;;;;;;4971315;28;20037;-62
2022/03/22 07:29:19;;;;;;;25.65;11.50;;;;;;;;;;4970806;28;20334;-62
2022/03/22 07:31:45;;;;;;;21.75;11.40;;;;;;;;;;4970731;28;20364;-62
2022/03/22 07:34:12;;;;;;;26.02;11.02;;;;;;;;;;4970888;28;20419;-62
2022/03/22 07:36:39;;;;;;;19.90;10.45;;;;;;;;;;4970598;28;20423;-62
2022/03/22 07:39:05;;;;;;;21.73;10.60;;;;;;;;;;4970604;28;20345;-62
2022/03/22 07:41:31;;;;;;;28.15;11.30;;;;;;;;;;4970517;28;20455;-62
2022/03/22 07:43:56;;;;;;;24.50;10.27;;;;;;;;;;4970916;28;20429;-62
2022/03/22 07:46:24;;;;;;;24.85;10.02;;;;;;;;;;4970912;28;20432;-63
2022/03/22 07:48:51;;;;;;;22.27;10.32;;;;;;;;;;4971436;28;20025;-68
2022/03/22 07:54:00;;;;;;;21.15;10.02;;;;;;;;;;4971643;28;20483;-62
2022/03/22 07:56:26;;;;;;;23.25;10.60;;;;;;;;;;4970034;28;20375;-62
2022/03/22 07:58:51;;;;;;;19.75;9.80;;;;;;;;;;4971779;28;20037;-62
2022/03/22 08:01:17;;;;;;;24.02;10.90;;;;;;;;;;4970994;28;20388;-62
2022/03/22 08:03:43;;;;;;;21.08;11.52;;;;;;;;;;4971924;28;20424;-62
2022/03/22 08:06:08;;;;;;;25.00;10.65;;;;;;;;;;4970204;28;20401;-62
2022/03/22 08:08:34;;;;;;;19.63;10.27;;;;;;;;;;4969973;28;20317;-62
2022/03/22 08:11:01;;;;;;;26.48;10.43;;;;;;;;;;4970467;28;20332;-62
2022/03/22 08:13:26;;;;;;;24.30;9.85;;;;;;;;;;4970248;28;20447;-62
2022/03/22 08:15:52;;;;;;;21.48;10.63;;;;;;;;;;4970480;28;20765;-63
2022/03/22 08:18:17;;;;;;;24.92;10.88;;;;;;;;;;4970596;28;20456;-62
2022/03/22 08:20:43;;;;;;;24.10;10.93;;;;;;;;;;4971203;28;20102;-62
2022/03/22 08:23:09;;;;;;;21.05;10.35;;;;;;;;;;4969638;28;20413;-62
2022/03/22 08:25:37;;;;;;;23.35;10.38;;;;;;;;;;4970137;28;20476;-63
2022/03/22 08:28:05;;;;;;;23.23;10.38;;;;;;;;;;4970304;28;20368;-62
2022/03/22 08:30:31;;;;;;;24.60;10.93;;;;;;;;;;4970004;28;20360;-62
2022/03/22 08:32:59;;;;;;;26.42;10.88;;;;;;;;;;4969978;28;20375;-62
2022/03/22 08:35:25;;;;;;;27.38;10.90;;;;;;;;;;4969749;28;20384;-62
2022/03/22 08:37:51;;;;;;;19.40;10.32;;;;;;;;;;4969657;28;20475;-62
2022/03/22 08:40:16;;;;;;;22.05;9.50;;;;;;;;;;4969336;28;20340;-62
2022/03/22 08:42:43;;;;;;;22.10;11.15;;;;;;;;;;4969889;28;20346;-63
2022/03/22 08:45:12;;;;;;;23.35;9.68;;;;;;;;;;4970333;28;20371;-62
2022/03/22 08:47:37;;;;;;;;;;;;;;;;;;4970923;28;20041;-62
2022/03/22 08:50:05;;;;;;;20.77;9.20;;;;;;;;;;4969612;28;19978;-62
2022/03/22 08:52:31;;;;;;;19.80;9.35;;;;;;;;;;4969233;28;20376;-62
2022/03/22 08:54:56;;;;;;;18.75;8.88;;;;;;;;;;4968960;28;20038;-62
2022/03/22 08:57:22;;;;;;;20.95;9.63;;;;;;;;;;4969887;28;20052;-62
2022/03/22 08:59:47;;;;;;;18.88;9.45;;;;;;;;;;4969312;28;20410;-62
2022/03/22 09:02:13;;;;;;;19.70;8.73;;;;;;;;;;4968754;28;20499;-63
2022/03/22 09:07:22;;;;;;;19.73;10.27;;;;;;;;;;4969839;28;20056;-62
2022/03/22 09:09:48;;;;;;;17.33;8.27;;;;;;;;;;4968885;28;20022;-62
2022/03/22 09:12:13;;;;;;;17.50;9.00;;;;;;;;;;4969460;28;20452;-62
2022/03/22 09:14:39;;;;;;;21.80;9.95;;;;;;;;;;4969379;28;20412;-62
2022/03/22 09:17:05;;;;;;;20.63;8.20;;;;;;;;;;4968680;28;20080;-62
2022/03/22 09:19:33;;;;;;;20.27;9.18;;;;;;;;;;4970149;28;20522;-62
2022/03/22 09:22:00;;;;;;;15.02;7.80;;;;;;;;;;4968043;28;20336;-62
2022/03/22 09:24:25;;;;;;;20.08;8.85;;;;;;;;;;4969395;28;20412;-62
2022/03/22 09:26:50;;;;;;;18.63;8.75;;;;;;;;;;4968855;28;20439;-62
2022/03/22 09:29:16;;;;;;;20.35;10.23;;;;;;;;;;4969220;28;20022;-62
2022/03/22 09:31:41;;;;;;;15.95;8.13;;;;;;;;;;4968697;28;20321;-62
2022/03/22 09:34:06;;;;;;;15.18;7.63;;;;;;;;;;4969869;28;20117;-64
2022/03/22 09:36:32;;;;;;;16.35;8.52;;;;;;;;;;4968628;28;20465;-62
2022/03/22 09:38:58;;;;;;;19.27;8.48;;;;;;;;;;4969113;28;20352;-63
2022/03/22 09:41:24;;;;;;;19.40;8.65;;;;;;;;;;4968833;28;20472;-62
2022/03/22 09:43:49;;;;;;;18.67;9.00;;;;;;;;;;4951214;28;20325;-62
2022/03/22 09:46:19;;;;;;;15.95;7.97;;;;;;;;;;4968582;28;20330;-62
2022/03/22 09:48:46;;;;;;;20.98;8.50;;;;;;;;;;4968329;28;20391;-63
2022/03/22 09:53:56;;;;;;;17.20;7.43;;;;;;;;;;4969315;28;20404;-62
2022/03/22 09:56:22;;;;;;;18.55;7.43;;;;;;;;;;4951387;28;20407;-62
2022/03/22 09:58:48;;;;;;;15.05;8.50;;;;;;;;;;4968374;28;20472;-62
2022/03/22 10:01:13;;;;;;;14.15;6.75;;;;;;;;;;4968588;28;20459;-62
2022/03/22 10:03:39;;;;;;;19.40;8.18;;;;;;;;;;4968920;28;20475;-62
2022/03/22 10:06:05;;;;;;;18.65;7.80;;;;;;;;;;4968492;28;20344;-62
2022/03/22 10:08:31;;;;;;;16.95;7.68;;;;;;;;;;4950976;28;20033;-62
2022/03/22 10:11:00;;;;;;;15.93;7.57;;;;;;;;;;4969068;28;20056;-62
2022/03/22 10:13:27;;;;;;;12.10;7.07;;;;;;;;;;4969423;28;20429;-63
2022/03/22 10:16:02;;;;;;;13.65;7.32;;;;;;;;;;4968039;28;20508;-62
2022/03/22 10:18:28;;;;;;;17.38;7.72;;;;;;;;;;4968902;28;20432;-63
2022/03/22 10:21:00;;;;;;;11.88;7.38;;;;;;;;;;4969167;28;20433;-62
2022/03/22 10:23:25;;;;;;;15.98;7.47;;;;;;;;;;4968224;28;20502;-62
2022/03/22 10:26:01;;;;;;;20.10;7.07;;;;;;;;;;4950986;28;20469;-62
2022/03/22 10:28:27;;;;;;;14.10;7.40;;;;;;;;;;4968961;28;20399;-62
2022/03/22 10:30:56;;;;;;;13.13;7.07;;;;;;;;;;4968804;28;20330;-62
2022/03/22 10:33:21;;;;;;;16.40;7.65;;;;;;;;;;4970732;28;20076;-62
2022/03/22 10:35:46;;;;;;;15.25;7.35;;;;;;;;;;4973180;28;20113;-62
2022/03/22 10:38:15;;;;;;;13.80;7.10;;;;;;;;;;4972382;28;20456;-63
2022/03/22 10:40:44;;;;;;;12.97;6.27;;;;;;;;;;4971937;28;20441;-62
2022/03/22 10:43:11;;;;;;;13.15;6.78;;;;;;;;;;4972012;28;20357;-62
2022/03/22 10:46:00;;;;;;;13.23;6.82;;;;;;;;;;4971760;28;20376;-62
2022/03/22 10:48:34;;;;;;;12.55;7.05;;;;;;;;;;4971439;28;20329;-62
2022/03/22 10:51:00;;;;;;;14.32;6.53;;;;;;;;;;4971873;28;20471;-62
2022/03/22 10:53:28;;;;;;;13.27;6.75;;;;;;;;;;4971423;28;20456;-62
2022/03/22 10:55:54;;;;;;;13.68;7.18;;;;;;;;;;4971541;28;20384;-63
2022/03/22 10:58:22;;;;;;;11.27;6.32;;;;;;;;;;4971445;28;20395;-62
2022/03/22 11:00:48;;;;;;;15.13;6.97;;;;;;;;;;4971586;28;20030;-62
2022/03/22 11:03:17;;;;;;;15.95;7.22;;;;;;;;;;4972777;28;20324;-62
2022/03/22 11:05:45;;;;;;;13.25;6.93;;;;;;;;;;4971475;28;20499;-62
2022/03/22 11:08:11;;;;;;;13.07;7.68;;;;;;;;;;4971746;28;20436;-62
2022/03/22 11:10:37;;;;;;;12.90;6.80;;;;;;;;;;4953672;28;20420;-62
2022/03/22 11:13:02;;;;;;;12.65;6.43;;;;;;;;;;4972503;28;20325;-62
2022/03/22 11:15:32;;;;;;;12.10;6.10;;;;;;;;;;4972660;28;20331;-63
2022/03/22 11:17:58;;;;;;;13.63;6.07;;;;;;;;;;4953455;28;20025;-62
2022/03/22 11:20:25;;;;;;;13.93;7.63;;;;;;;;;;4970848;28;20034;-62
2022/03/22 11:22:54;;;;;;;13.60;6.78;;;;;;;;;;4971153;28;20348;-62
2022/03/22 11:25:34;;;;;;;17.02;7.15;;;;;;;;;;4971180;28;20357;-62
2022/03/22 11:28:04;;;;;;;15.30;6.07;;;;;;;;;;4970966;28;20532;-62
2022/03/22 11:30:31;;;;;;;14.93;7.60;;;;;;;;;;4970917;28;20429;-62
2022/03/22 11:36:18;;;;;;;14.20;6.45;;;;;;;;;;4971241;28;20561;-62
2022/03/22 11:38:51;;;;;;;16.88;6.35;;;;;;;;;;4948670;28;20468;-62
2022/03/22 11:44:14;;;;;;;14.48;6.63;;;;;;;;;;4950192;28;20438;-62
2022/03/22 11:46:39;;;;;;;12.50;6.45;;;;;;;;;;4950836;28;20580;-62
2022/03/22 11:49:19;;;;;;;14.35;6.60;;;;;;;;;;4951500;28;20421;-63
2022/03/22 11:51:54;;;;;;;15.05;6.88;;;;;;;;;;4952092;28;20456;-63
2022/03/22 11:54:21;;;;;;;13.43;6.65;;;;;;;;;;4950832;28;20051;-63
2022/03/22 11:56:52;;;;;;;14.60;6.18;;;;;;;;;;4950612;28;20473;-65
2022/03/22 11:59:19;;;;;;;12.90;6.28;;;;;;;;;;4951330;28;20457;-63
2022/03/22 12:01:58;;;;;;;14.10;6.47;;;;;;;;;;4951218;28;20443;-63
2022/03/22 12:04:36;;;;;;;10.45;5.95;;;;;;;;;;4950822;28;20421;-62
2022/03/22 12:07:03;;;;;;;11.30;5.90;;;;;;;;;;4950426;28;20391;-63
2022/03/22 12:09:29;;;;;;;13.65;6.13;;;;;;;;;;4951017;28;20441;-63
2022/03/22 12:11:55;;;;;;;13.85;6.45;;;;;;;;;;4950536;28;20393;-62
2022/03/22 12:14:28;;;;;;;15.15;7.13;;;;;;;;;;4950505;28;20349;-63
2022/03/22 12:16:54;;;;;;;17.65;7.00;;;;;;;;;;4951529;28;20385;-62
2022/03/22 12:19:34;;;;;;;16.67;5.80;;;;;;;;;;4950523;28;20508;-62
2022/03/22 12:22:00;;;;;;;14.13;6.00;;;;;;;;;;4950338;28;20503;-63
2022/03/22 12:24:33;;;;;;;12.45;5.97;;;;;;;;;;4950435;28;20113;-62
2022/03/22 12:27:00;;;;;;;12.73;6.78;;;;;;;;;;4950862;28;20397;-62
2022/03/22 12:29:26;;;;;;;10.93;5.28;;;;;;;;;;4950130;28;20042;-63
2022/03/22 12:31:53;;;;;;;12.18;7.15;;;;;;;;;;4950354;28;20049;-63
2022/03/22 12:34:18;;;;;;;12.43;6.40;;;;;;;;;;4950648;28;20026;-63
2022/03/22 12:36:44;;;;;;;12.18;6.00;;;;;;;;;;4955973;28;20063;-63
2022/03/22 12:39:11;;;;;;;15.18;6.50;;;;;;;;;;4969478;28;20468;-62
2022/03/22 12:41:37;;;;;;;12.85;6.35;;;;;;;;;;4969622;28;20341;-62
2022/03/22 12:44:04;;;;;;;12.50;6.43;;;;;;;;;;4969350;28;20429;-62
2022/03/22 12:46:29;;;;;;;12.18;5.22;;;;;;;;;;4969397;28;20416;-63
2022/03/22 12:48:55;;;;;;;12.98;6.40;;;;;;;;;;4969355;28;20502;-62
2022/03/22 12:51:24;;;;;;;11.48;5.95;;;;;;;;;;4969807;28;20387;-63
2022/03/22 12:53:49;;;;;;;14.57;5.80;;;;;;;;;;4969608;28;20059;-63
2022/03/22 12:56:16;;;;;;;11.88;5.47;;;;;;;;;;4968942;28;20029;-62
2022/03/22 12:58:43;;;;;;;10.40;5.85;;;;;;;;;;4969383;28;20049;-62
2022/03/22 13:01:09;;;;;;;11.63;5.35;;;;;;;;;;4969530;28;20041;-63
2022/03/22 13:03:36;;;;;;;12.52;5.60;;;;;;;;;;4970586;28;20608;-62
2022/03/22 13:06:02;;;;;;;10.95;5.30;;;;;;;;;;4969605;28;20495;-62
2022/03/22 13:11:26;;;;;;;11.85;6.07;;;;;;;;;;4969392;28;20421;-63
2022/03/22 13:11:27;;;;;;;11.73;5.78;;;;;;;;;;4969297;28;20091;-62
2022/03/22 13:16:38;;;;;;;9.60;6.00;;;;;;;;;;4970535;28;20344;-62
2022/03/22 13:19:06;;;;;;;13.05;6.35;;;;;;;;;;4969155;28;20356;-62
2022/03/22 13:21:33;;;;;;;12.05;5.65;;;;;;;;;;4971135;28;20052;-62
2022/03/22 13:24:11;;;;;;;10.73;5.30;;;;;;;;;;4969483;28;20492;-62
2022/03/22 13:26:38;;;;;;;11.85;6.00;;;;;;;;;;4969032;28;20392;-63
2022/03/22 13:29:12;;;;;;;14.02;7.72;;;;;;;;;;4969356;28;20037;-62
2022/03/22 13:31:38;;;;;;;10.98;5.22;;;;;;;;;;4969253;28;20034;-62
2022/03/22 13:34:03;;;;;;;13.15;5.60;;;;;;;;;;4969130;28;20436;-62
2022/03/22 13:36:28;;;;;;;10.25;5.30;;;;;;;;;;4968979;28;20479;-62
2022/03/22 13:38:54;;;;;;;9.88;6.18;;;;;;;;;;4968849;28;20320;-62
2022/03/22 13:41:24;;;;;;;9.80;5.10;;;;;;;;;;4969123;28;20108;-62
2022/03/22 13:43:49;;;;;;;9.68;5.30;;;;;;;;;;4969153;28;20463;-62
2022/03/22 13:46:14;;;;;;;7.30;4.68;;;;;;;;;;4969497;28;20464;-62
2022/03/22 13:48:53;;;;;;;10.52;5.50;;;;;;;;;;4969608;28;20456;-62
2022/03/22 13:51:24;;;;;;;10.17;5.23;;;;;;;;;;4970997;28;20052;-62
2022/03/22 13:53:49;;;;;;;11.25;6.00;;;;;;;;;;4969065;28;20372;-62
2022/03/22 13:56:21;;;;;;;10.20;4.93;;;;;;;;;;4968918;28;20352;-62
2022/03/22 13:58:47;;;;;;;9.27;4.97;;;;;;;;;;4969528;28;20437;-62
2022/03/22 14:01:13;;;;;;;13.57;4.82;;;;;;;;;;4969292;28;20469;-62
2022/03/22 14:03:43;;;;;;;11.30;5.38;;;;;;;;;;4969096;28;20437;-62
2022/03/22 14:06:08;;;;;;;;;;;;;;;;;;4970140;28;20470;-62
2022/03/22 14:08:34;;;;;;;11.55;5.80;;;;;;;;;;4971558;28;20308;-62
2022/03/22 14:10:59;;;;;;;9.85;5.57;;;;;;;;;;4972601;28;20373;-62
2022/03/22 14:13:28;;;;;;;9.23;5.15;;;;;;;;;;4973406;28;20411;-62
2022/03/22 14:15:53;;;;;;;13.18;6.65;;;;;;;;;;4972754;28;20344;-62
2022/03/22 14:18:21;;;;;;;8.68;4.82;;;;;;;;;;4972083;28;20312;-62
2022/03/22 14:20:46;;;;;;;10.55;5.03;;;;;;;;;;4973328;28;20056;-62
2022/03/22 14:23:11;;;;;;;10.32;5.65;;;;;;;;;;4972113;28;20033;-62
2022/03/22 14:25:37;;;;;;;9.45;4.65;;;;;;;;;;4972691;28;20397;-62
2022/03/22 14:28:03;;;;;;;12.82;4.40;;;;;;;;;;4972368;28;20048;-62
2022/03/22 14:30:30;;;;;;;14.13;5.78;;;;;;;;;;4980641;28;20444;-64
2022/03/22 14:32:59;;;;;;;10.90;5.47;;;;;;;;;;4990888;28;20399;-61
2022/03/22 14:38:11;;;;;;;22.58;9.77;;;;;;;;;;5008423;28;20355;-64
2022/03/22 14:40:37;;;;;;;45.05;12.55;;;;;;;;;;5011533;28;20347;-64
2022/03/22 14:43:04;;;;;;;35.42;13.50;;;;;;;;;;5009737;28;20078;-64
2022/03/22 14:45:30;;;;;;;36.08;11.98;;;;;;;;;;5010712;28;20414;-64
2022/03/22 14:47:57;;;;;;;39.22;12.13;;;;;;;;;;5010804;28;20390;-64
2022/03/22 14:50:24;;;;;;;38.38;14.20;;;;;;;;;;5011008;28;20458;-64
2022/03/22 14:55:42;;;;;;;39.92;12.98;;;;;;;;;;4980538;28;20466;-64
2022/03/22 15:00:54;;;;;;;33.03;12.40;;;;;;;;;;5012206;28;20339;-64
2022/03/22 15:03:26;;;;;;;42.85;14.45;;;;;;;;;;5011066;28;20332;-64
2022/03/22 15:05:52;;;;;;;36.40;13.85;;;;;;;;;;5010849;28;20064;-64
2022/03/22 15:08:21;;;;;;;42.38;13.00;;;;;;;;;;5011144;28;20515;-64
2022/03/22 15:10:47;;;;;;;41.13;13.68;;;;;;;;;;5011029;28;20375;-64